NORTHEAST SUFFOLK  -  Winter Weather Advisory Winter Weather Advisory     Winter Weather Advisory Winter Weather Advisory        NORTHERN NASSAU  -  Winter Weather Advisory Winter Weather Advisory        NORTHWEST SUFFOLK  -  Winter Weather Advisory Winter Weather Advisory     Winter Weather Advisory Winter Weather Advisory        SOUTHEAST SUFFOLK  -  Winter Weather Advisory Winter Weather Advisory     Winter Weather Advisory Winter Weather Advisory        SOUTHERN NASSAU  -  Winter Weather Advisory Winter Weather Advisory        SOUTHWEST SUFFOLK  -  Winter Weather Advisory Winter Weather Advisory     Winter Weather Advisory Winter Weather Advisory      

Active alerts

Northern Nassau
  Details for Northern Nassau Winter Weather Advisory
Southern Nassau
  Details for Southern Nassau Winter Weather Advisory
Northwest Suffolk
  Details for Northwest Suffolk Winter Weather Advisory  +1 additional alert
Southwest Suffolk
  Details for Southwest Suffolk Winter Weather Advisory  +1 additional alert
Northeast Suffolk
  Details for Northeast Suffolk Winter Weather Advisory  +1 additional alert
Southeast Suffolk
  Details for Southeast Suffolk Winter Weather Advisory  +1 additional alert


WXM80 ListenWXM80 Stop

You find our weather info also at:

UK Metoffice

WeatherCloud

Weather Underground

Northeastern Weather Network

AWEKAS

Citizen Weather Observer Program (CWOP)

HAMweather, WeatherForYou, PWS Weather


Weather Underground History page Text

Daily Summary for June 2, 2017 Units:  English    Metric   Both
« Previous Day
Next Day »
Daily Weekly Monthly Yearly Custom
  High: Low: Average:
Temperature: 79.4 °F 52.2 °F 65.8 °F
Dew Point: 60.1 °F 47.8 °F 51.7 °F
Humidity: 89 % 40 % 62 %
Wind Speed: 7.1 mph 0.0 mph 1.3 mph
Wind Gust: 14.0 mph - -
Wind:- - SW
Pressure: 29.95 in 29.83 in -
Precipitation: 0.00 in    
Historical Graphs
 
 
Tabular Data for June 2, 2017
Time Temperature Dew Point Pressure Wind Wind Speed Wind Gust Humidity Rainfall Rate (Hourly)
00:04 63.2 °F 50.8 °F 29.88 in WSW 0.6 mph 3.5 mph 64 % 0.00 in
00:09 63.2 °F 50.4 °F 29.88 in SW 0.1 mph 3.5 mph 63 % 0.00 in
00:14 63.2 °F 50.4 °F 29.88 in WSW 1.5 mph 3.5 mph 63 % 0.00 in
00:19 63.3 °F 50.5 °F 29.88 in Calm   1.2 mph 63 % 0.00 in
00:24 63.3 °F 50.5 °F 29.88 in SW 1.0 mph 2.3 mph 63 % 0.00 in
00:29 63.3 °F 49.6 °F 29.88 in WNW 1.0 mph 2.3 mph 61 % 0.00 in
00:35 63.4 °F 49.7 °F 29.89 in WNW 2.0 mph 4.6 mph 61 % 0.00 in
00:40 63.6 °F 52.0 °F 29.90 in WNW 4.2 mph 10.4 mph 66 % 0.00 in
00:45 64.0 °F 54.0 °F 29.91 in WNW 7.1 mph 11.5 mph 70 % 0.00 in
00:50 64.2 °F 54.2 °F 29.91 in NNE 1.2 mph 5.8 mph 70 % 0.00 in
00:55 64.1 °F 54.5 °F 29.91 in NNE 2.6 mph 5.8 mph 71 % 0.00 in
01:00 64.0 °F 54.4 °F 29.91 in NW 2.1 mph 4.0 mph 71 % 0.00 in
01:05 63.7 °F 53.7 °F 29.91 in NNE 0.7 mph 4.6 mph 70 % 0.00 in
01:10 63.5 °F 53.1 °F 29.92 in North 3.2 mph 7.0 mph 69 % 0.00 in
01:15 63.2 °F 52.9 °F 29.92 in North 2.3 mph 5.8 mph 69 % 0.00 in
01:20 62.8 °F 52.1 °F 29.92 in NNE 3.5 mph 6.9 mph 68 % 0.00 in
01:25 62.5 °F 52.6 °F 29.92 in NE 0.5 mph 3.0 mph 70 % 0.00 in
01:30 62.3 °F 52.4 °F 29.92 in NE 0.9 mph 4.6 mph 70 % 0.00 in
01:35 62.1 °F 52.6 °F 29.92 in NNW 1.1 mph 2.3 mph 71 % 0.00 in
01:40 61.9 °F 52.0 °F 29.92 in Calm     70 % 0.00 in
01:45 61.8 °F 51.9 °F 29.93 in Calm   1.2 mph 70 % 0.00 in
01:50 61.7 °F 51.8 °F 29.93 in Calm     70 % 0.00 in
01:55 61.5 °F 51.2 °F 29.93 in Calm   1.2 mph 69 % 0.00 in
02:00 61.3 °F 51.0 °F 29.92 in Calm     69 % 0.00 in
02:05 61.2 °F 51.3 °F 29.92 in NE 0.3 mph 2.3 mph 70 % 0.00 in
02:10 61.0 °F 51.1 °F 29.92 in NE 0.1 mph   70 % 0.00 in
02:15 60.8 °F 51.0 °F 29.92 in Calm     70 % 0.00 in
02:21 60.7 °F 51.2 °F 29.93 in Calm     71 % 0.00 in
02:25 60.4 °F 51.0 °F 29.93 in Calm     71 % 0.00 in
02:31 60.2 °F 51.1 °F 29.93 in Calm     72 % 0.00 in
02:36 60.0 °F 50.9 °F 29.93 in Calm   1.0 mph 72 % 0.00 in
02:41 59.7 °F 51.0 °F 29.93 in Calm     73 % 0.00 in
02:46 59.4 °F 51.1 °F 29.93 in Calm   1.0 mph 74 % 0.00 in
02:51 59.1 °F 50.8 °F 29.93 in Calm     74 % 0.00 in
02:56 58.8 °F 50.5 °F 29.93 in Calm     74 % 0.00 in
03:01 58.5 °F 49.9 °F 29.93 in Calm     73 % 0.00 in
03:06 58.2 °F 49.6 °F 29.93 in NE 0.1 mph 2.3 mph 73 % 0.00 in
03:11 58.0 °F 49.4 °F 29.93 in NNW 0.9 mph 3.5 mph 73 % 0.00 in
03:16 57.8 °F 49.2 °F 29.93 in Calm   2.3 mph 73 % 0.00 in
03:21 57.6 °F 48.6 °F 29.93 in North 1.4 mph 2.3 mph 72 % 0.00 in
03:26 57.4 °F 48.4 °F 29.93 in Calm   1.2 mph 72 % 0.00 in
03:31 57.3 °F 48.7 °F 29.93 in NNE 1.2 mph 3.5 mph 73 % 0.00 in
03:36 57.1 °F 48.5 °F 29.93 in NNE 0.2 mph 2.3 mph 73 % 0.00 in
03:41 57.0 °F 48.4 °F 29.94 in Calm     73 % 0.00 in
03:46 56.9 °F 48.3 °F 29.94 in Calm     73 % 0.00 in
03:51 56.8 °F 48.6 °F 29.94 in Calm     74 % 0.00 in
03:56 56.7 °F 48.5 °F 29.94 in Calm     74 % 0.00 in
04:01 56.6 °F 48.4 °F 29.94 in NNE 0.7 mph 2.0 mph 74 % 0.00 in
04:06 56.4 °F 48.6 °F 29.94 in NNE 0.7 mph 2.3 mph 75 % 0.00 in
04:11 56.3 °F 48.5 °F 29.94 in NNE 0.1 mph 1.2 mph 75 % 0.00 in
04:16 56.2 °F 48.4 °F 29.94 in Calm   2.3 mph 75 % 0.00 in
04:21 56.0 °F 48.5 °F 29.94 in Calm     76 % 0.00 in
04:26 55.9 °F 48.4 °F 29.94 in Calm     76 % 0.00 in
04:31 55.7 °F 48.6 °F 29.94 in NNE 0.1 mph 1.2 mph 77 % 0.00 in
04:36 55.6 °F 48.5 °F 29.94 in Calm     77 % 0.00 in
04:41 55.4 °F 48.7 °F 29.94 in Calm     78 % 0.00 in
04:46 55.3 °F 48.9 °F 29.94 in Calm     79 % 0.00 in
04:51 55.1 °F 48.7 °F 29.94 in Calm     79 % 0.00 in
04:56 55.0 °F 48.9 °F 29.94 in Calm     80 % 0.00 in
05:01 54.8 °F 48.4 °F 29.94 in Calm     79 % 0.00 in
05:06 54.6 °F 48.6 °F 29.94 in Calm     80 % 0.00 in
05:11 54.4 °F 48.4 °F 29.94 in Calm     80 % 0.00 in
05:16 54.2 °F 48.5 °F 29.94 in Calm     81 % 0.00 in
05:21 54.0 °F 48.6 °F 29.94 in Calm     82 % 0.00 in
05:26 53.8 °F 48.4 °F 29.94 in Calm     82 % 0.00 in
05:31 53.5 °F 48.1 °F 29.94 in Calm     82 % 0.00 in
05:37 53.3 °F 48.3 °F 29.95 in Calm     83 % 0.00 in
05:42 53.1 °F 48.1 °F 29.95 in Calm     83 % 0.00 in
05:47 52.9 °F 48.2 °F 29.95 in Calm     84 % 0.00 in
05:51 52.8 °F 48.1 °F 29.95 in Calm     84 % 0.00 in
05:56 52.6 °F 48.2 °F 29.94 in NNE 0.2 mph 1.0 mph 85 % 0.00 in
06:01 52.4 °F 48.0 °F 29.95 in Calm   1.2 mph 85 % 0.00 in
06:06 52.3 °F 47.9 °F 29.94 in Calm   1.2 mph 85 % 0.00 in
06:11 52.3 °F 47.9 °F 29.94 in Calm     85 % 0.00 in
06:16 52.2 °F 47.8 °F 29.94 in Calm     85 % 0.00 in
06:21 52.2 °F 47.8 °F 29.94 in Calm     85 % 0.00 in
06:26 52.3 °F 48.2 °F 29.94 in Calm     86 % 0.00 in
06:31 52.3 °F 48.2 °F 29.94 in Calm     86 % 0.00 in
06:36 52.4 °F 48.6 °F 29.94 in Calm     87 % 0.00 in
06:41 52.6 °F 48.8 °F 29.94 in Calm     87 % 0.00 in
06:46 52.8 °F 49.3 °F 29.94 in Calm     88 % 0.00 in
06:51 53.1 °F 49.9 °F 29.94 in Calm     89 % 0.00 in
06:56 53.5 °F 50.0 °F 29.94 in Calm     88 % 0.00 in
07:01 54.0 °F 50.5 °F 29.94 in Calm     88 % 0.00 in
07:07 54.5 °F 51.0 °F 29.94 in Calm     88 % 0.00 in
07:12 55.0 °F 51.2 °F 29.94 in Calm     87 % 0.00 in
07:17 55.6 °F 51.5 °F 29.94 in Calm     86 % 0.00 in
07:22 56.3 °F 51.8 °F 29.94 in Calm     85 % 0.00 in
07:27 57.0 °F 51.9 °F 29.94 in Calm     83 % 0.00 in
07:32 57.9 °F 50.7 °F 29.94 in Calm     77 % 0.00 in
07:37 58.6 °F 50.7 °F 29.94 in Calm     75 % 0.00 in
07:42 59.0 °F 49.6 °F 29.94 in Calm     71 % 0.00 in
07:47 59.4 °F 49.2 °F 29.94 in NNE 0.2 mph 1.2 mph 69 % 0.00 in
07:52 59.8 °F 49.2 °F 29.94 in Calm     68 % 0.00 in
07:57 60.2 °F 50.0 °F 29.94 in NNE 0.1 mph 1.2 mph 69 % 0.00 in
08:02 60.6 °F 49.6 °F 29.95 in SSW 2.0 mph 4.0 mph 67 % 0.00 in
08:07 61.0 °F 50.4 °F 29.94 in SW 0.4 mph 3.5 mph 68 % 0.00 in
08:12 61.3 °F 50.2 °F 29.95 in SW 1.0 mph 3.5 mph 67 % 0.00 in
08:17 61.7 °F 49.4 °F 29.95 in SW 2.2 mph 3.5 mph 64 % 0.00 in
08:22 62.0 °F 49.7 °F 29.95 in SW 0.6 mph 3.5 mph 64 % 0.00 in
08:27 62.3 °F 50.4 °F 29.95 in WSW 1.5 mph 3.5 mph 65 % 0.00 in
08:30 62.5 °F 51.0 °F 29.95 in West 1.8 mph 3.5 mph 66 % 0.00 in
08:35 62.9 °F 51.0 °F 29.95 in WSW 1.3 mph 5.8 mph 65 % 0.00 in
08:40 63.2 °F 52.1 °F 29.95 in NW 1.5 mph 4.6 mph 67 % 0.00 in
08:45 63.5 °F 52.3 °F 29.95 in Calm   1.2 mph 67 % 0.00 in
08:50 63.8 °F 52.6 °F 29.95 in West 0.8 mph 3.5 mph 67 % 0.00 in
08:55 64.1 °F 52.9 °F 29.95 in West 1.5 mph 3.5 mph 67 % 0.00 in
09:00 64.3 °F 52.7 °F 29.95 in West 1.3 mph 3.5 mph 66 % 0.00 in
09:05 64.5 °F 52.5 °F 29.94 in NW 1.0 mph 3.5 mph 65 % 0.00 in
09:10 64.7 °F 51.8 °F 29.95 in NW 0.6 mph 2.3 mph 63 % 0.00 in
09:11 64.8 °F 52.8 °F 29.95 in NW 0.5 mph 2.3 mph 65 % 0.00 in
09:16 65.0 °F 53.4 °F 29.95 in WNW 2.0 mph 4.0 mph 66 % 0.00 in
09:21 65.2 °F 53.1 °F 29.94 in West 1.5 mph 4.6 mph 65 % 0.00 in
09:26 65.4 °F 54.6 °F 29.94 in WNW 0.3 mph 2.3 mph 68 % 0.00 in
09:31 65.8 °F 55.3 °F 29.94 in NW 2.0 mph 3.5 mph 69 % 0.00 in
09:36 66.1 °F 56.4 °F 29.94 in NNW 0.9 mph 3.5 mph 71 % 0.00 in
09:41 66.6 °F 57.3 °F 29.94 in NW 1.3 mph 3.5 mph 72 % 0.00 in
09:46 67.1 °F 57.4 °F 29.94 in NW 0.2 mph 2.3 mph 71 % 0.00 in
09:51 67.8 °F 57.3 °F 29.94 in North 1.8 mph 3.5 mph 69 % 0.00 in
09:56 68.5 °F 57.1 °F 29.94 in NW 1.2 mph 3.5 mph 67 % 0.00 in
10:01 69.3 °F 57.9 °F 29.94 in NW 1.9 mph 3.5 mph 67 % 0.00 in
10:06 70.0 °F 58.1 °F 29.93 in NNW 1.8 mph 2.3 mph 66 % 0.00 in
10:11 70.6 °F 57.8 °F 29.93 in NW 2.0 mph 3.5 mph 64 % 0.00 in
10:16 71.3 °F 58.9 °F 29.93 in North 2.0 mph 4.0 mph 65 % 0.00 in
10:21 71.9 °F 59.5 °F 29.93 in NW 2.1 mph 4.6 mph 65 % 0.00 in
10:26 72.3 °F 58.1 °F 29.93 in NW 2.1 mph 5.0 mph 61 % 0.00 in
10:31 72.8 °F 57.6 °F 29.93 in North 1.9 mph 3.5 mph 59 % 0.00 in
10:36 73.3 °F 58.1 °F 29.93 in NNW 1.3 mph 8.1 mph 59 % 0.00 in
10:41 73.7 °F 58.9 °F 29.92 in NNW 1.8 mph 3.5 mph 60 % 0.00 in
10:46 74.0 °F 59.2 °F 29.92 in NNW 0.2 mph 1.2 mph 60 % 0.00 in
10:51 74.2 °F 57.5 °F 29.92 in WNW 0.4 mph 2.3 mph 56 % 0.00 in
10:56 74.6 °F 57.9 °F 29.92 in NW 0.9 mph 3.5 mph 56 % 0.00 in
11:01 74.9 °F 60.1 °F 29.92 in Calm     60 % 0.00 in
11:06 75.2 °F 59.9 °F 29.92 in WNW 0.9 mph 3.5 mph 59 % 0.00 in
11:11 75.4 °F 55.5 °F 29.92 in West 0.4 mph 2.3 mph 50 % 0.00 in
11:16 75.6 °F 57.8 °F 29.92 in West 0.4 mph 1.2 mph 54 % 0.00 in
11:21 76.0 °F 57.6 °F 29.92 in NNW 2.3 mph 3.5 mph 53 % 0.00 in
11:26 76.3 °F 57.9 °F 29.92 in WNW 2.0 mph 4.6 mph 53 % 0.00 in
11:27 76.4 °F 58.5 °F 29.92 in North 2.3 mph 4.6 mph 54 % 0.00 in
11:32 76.7 °F 58.3 °F 29.91 in North 3.1 mph 5.0 mph 53 % 0.00 in
11:37 76.9 °F 56.3 °F 29.91 in North 4.1 mph 5.0 mph 49 % 0.00 in
11:42 77.1 °F 58.1 °F 29.91 in WNW 1.1 mph 5.8 mph 52 % 0.00 in
11:47 77.4 °F 55.6 °F 29.91 in NW 3.4 mph 4.6 mph 47 % 0.00 in
11:52 77.7 °F 59.7 °F 29.91 in NW 0.1 mph 1.2 mph 54 % 0.00 in
11:57 77.9 °F 54.8 °F 29.91 in WSW 3.6 mph 4.6 mph 45 % 0.00 in
12:02 78.1 °F 55.6 °F 29.91 in WSW 3.6 mph 5.8 mph 46 % 0.00 in
12:07 78.4 °F 55.9 °F 29.90 in South 1.3 mph 3.5 mph 46 % 0.00 in
12:12 78.9 °F 56.4 °F 29.90 in West 1.8 mph 8.1 mph 46 % 0.00 in
12:17 79.2 °F 57.8 °F 29.90 in SE 1.5 mph 3.5 mph 48 % 0.00 in
12:22 79.1 °F 52.7 °F 29.89 in ESE 0.7 mph 2.3 mph 40 % 0.00 in
12:27 79.4 °F 55.6 °F 29.89 in SSW 0.5 mph 2.3 mph 44 % 0.00 in
12:32 79.4 °F 55.0 °F 29.89 in SE 2.5 mph 3.5 mph 43 % 0.00 in
12:37 79.4 °F 53.6 °F 29.89 in SSE 1.6 mph 4.6 mph 41 % 0.00 in
12:42 79.0 °F 54.6 °F 29.88 in SSW 1.3 mph 2.3 mph 43 % 0.00 in
12:47 79.0 °F 52.6 °F 29.89 in SE 1.5 mph 4.0 mph 40 % 0.00 in
12:52 78.8 °F 54.4 °F 29.88 in SSW 3.6 mph 4.6 mph 43 % 0.00 in
12:57 78.8 °F 54.4 °F 29.88 in South 2.7 mph 3.5 mph 43 % 0.00 in
13:03 78.2 °F 53.9 °F 29.88 in SSE 1.4 mph 6.9 mph 43 % 0.00 in
13:08 78.0 °F 56.7 °F 29.88 in SW 1.7 mph 8.1 mph 48 % 0.00 in
13:13 78.3 °F 55.8 °F 29.88 in NW 3.7 mph 6.9 mph 46 % 0.00 in
13:18 78.4 °F 55.3 °F 29.88 in SW 3.2 mph 8.1 mph 45 % 0.00 in
13:23 78.4 °F 54.7 °F 29.87 in South 1.2 mph 8.1 mph 44 % 0.00 in
13:28 78.5 °F 55.4 °F 29.87 in SSE 2.4 mph 6.9 mph 45 % 0.00 in
13:33 78.6 °F 55.5 °F 29.87 in South 1.1 mph 3.5 mph 45 % 0.00 in
13:38 78.5 °F 52.2 °F 29.87 in SSW 2.8 mph 9.2 mph 40 % 0.00 in
13:43 77.9 °F 52.3 °F 29.86 in SSE 1.8 mph 6.9 mph 41 % 0.00 in
13:48 77.7 °F 52.8 °F 29.86 in SW 1.3 mph 5.0 mph 42 % 0.00 in
13:53 77.6 °F 53.3 °F 29.86 in South 3.5 mph 8.1 mph 43 % 0.00 in
13:58 77.5 °F 53.2 °F 29.86 in South 1.7 mph 3.5 mph 43 % 0.00 in
14:03 77.2 °F 53.6 °F 29.86 in South 2.5 mph 4.6 mph 44 % 0.00 in
14:08 77.1 °F 54.1 °F 29.86 in WSW 1.8 mph 5.8 mph 45 % 0.00 in
14:13 77.3 °F 54.9 °F 29.85 in SE 2.3 mph 5.8 mph 46 % 0.00 in
14:18 77.5 °F 54.5 °F 29.86 in South 6.6 mph 11.5 mph 45 % 0.00 in
14:23 77.5 °F 51.3 °F 29.85 in South 5.6 mph 11.5 mph 40 % 0.00 in
14:33 76.8 °F 53.2 °F 29.85 in SSW 2.6 mph 5.8 mph 44 % 0.00 in
14:38 76.8 °F 53.8 °F 29.85 in ESE 2.5 mph 9.0 mph 45 % 0.00 in
14:43 76.5 °F 53.0 °F 29.85 in SSE 3.3 mph 5.8 mph 44 % 0.00 in
14:49 76.6 °F 53.7 °F 29.86 in South 2.3 mph 5.8 mph 45 % 0.00 in
14:54 76.3 °F 51.5 °F 29.86 in SSW 3.3 mph 6.0 mph 42 % 0.00 in
14:59 75.8 °F 51.1 °F 29.85 in SSE 2.2 mph 7.0 mph 42 % 0.00 in
15:04 75.5 °F 51.4 °F 29.85 in SSE 5.3 mph 14.0 mph 43 % 0.00 in
15:09 75.3 °F 51.3 °F 29.85 in South 3.9 mph 8.1 mph 43 % 0.00 in
15:14 75.3 °F 51.3 °F 29.85 in SSW 4.4 mph 8.1 mph 43 % 0.00 in
15:19 75.1 °F 51.1 °F 29.84 in SSE 4.9 mph 11.5 mph 43 % 0.00 in
15:24 74.6 °F 50.6 °F 29.84 in SSE 2.9 mph 4.6 mph 43 % 0.00 in
15:29 74.4 °F 51.7 °F 29.84 in South 2.7 mph 10.4 mph 45 % 0.00 in
15:34 74.0 °F 51.9 °F 29.84 in South 2.3 mph 5.8 mph 46 % 0.00 in
15:39 73.7 °F 51.6 °F 29.85 in SSW 4.1 mph 11.5 mph 46 % 0.00 in
15:44 73.0 °F 51.0 °F 29.85 in SSW 4.9 mph 8.1 mph 46 % 0.00 in
15:49 72.5 °F 50.5 °F 29.87 in WSW 3.5 mph 6.0 mph 46 % 0.00 in
15:54 72.0 °F 53.4 °F 29.87 in West 2.4 mph 6.9 mph 52 % 0.00 in
15:59 71.3 °F 55.3 °F 29.86 in Calm   4.6 mph 57 % 0.00 in
16:04 71.0 °F 52.5 °F 29.86 in SSW 3.9 mph 8.1 mph 52 % 0.00 in
16:09 70.7 °F 50.0 °F 29.86 in SE 6.5 mph 11.5 mph 48 % 0.00 in
16:14 70.3 °F 50.2 °F 29.86 in SSE 1.9 mph 4.6 mph 49 % 0.00 in
16:18 70.1 °F 50.6 °F 29.86 in SSW 1.3 mph 4.0 mph 50 % 0.00 in
16:23 70.2 °F 51.2 °F 29.86 in SSW 1.5 mph 3.0 mph 51 % 0.00 in
16:28 70.2 °F 51.7 °F 29.86 in South 2.0 mph 4.6 mph 52 % 0.00 in
16:33 70.1 °F 51.7 °F 29.85 in West 2.8 mph 6.9 mph 52 % 0.00 in
16:38 69.9 °F 52.0 °F 29.85 in SSW 1.1 mph 4.0 mph 53 % 0.00 in
16:43 69.6 °F 52.2 °F 29.85 in ESE 3.0 mph 5.8 mph 54 % 0.00 in
16:48 69.2 °F 51.8 °F 29.84 in SSW 1.3 mph 5.8 mph 54 % 0.00 in
16:53 68.9 °F 52.1 °F 29.84 in SSE 1.3 mph 8.1 mph 55 % 0.00 in
16:58 68.6 °F 53.2 °F 29.84 in South 3.1 mph 5.8 mph 58 % 0.00 in
17:03 68.6 °F 53.2 °F 29.84 in South 0.7 mph 4.6 mph 58 % 0.00 in
17:08 68.8 °F 52.5 °F 29.84 in SSW 2.2 mph 6.9 mph 56 % 0.00 in
17:13 69.1 °F 52.2 °F 29.84 in South 2.8 mph 4.6 mph 55 % 0.00 in
17:19 69.4 °F 52.5 °F 29.84 in SSW 1.7 mph 5.8 mph 55 % 0.00 in
17:24 69.6 °F 52.7 °F 29.84 in WSW 1.2 mph 2.3 mph 55 % 0.00 in
17:29 69.8 °F 52.4 °F 29.83 in SSW 1.1 mph 3.5 mph 54 % 0.00 in
17:34 69.9 °F 52.5 °F 29.83 in East 0.4 mph 3.5 mph 54 % 0.00 in
17:39 70.1 °F 52.7 °F 29.84 in SSE 0.3 mph 5.8 mph 54 % 0.00 in
17:44 70.2 °F 52.3 °F 29.83 in SSE 1.0 mph 3.5 mph 53 % 0.00 in
17:49 70.3 °F 51.8 °F 29.83 in SE 0.7 mph 3.5 mph 52 % 0.00 in
17:54 70.4 °F 52.4 °F 29.83 in SE 0.9 mph 4.0 mph 53 % 0.00 in
17:59 70.5 °F 52.5 °F 29.84 in WSW 1.5 mph 2.0 mph 53 % 0.00 in
18:04 70.6 °F 52.1 °F 29.83 in SW 2.3 mph 4.0 mph 52 % 0.00 in
18:09 70.7 °F 51.7 °F 29.83 in WSW 1.6 mph 6.9 mph 51 % 0.00 in
18:15 70.8 °F 52.3 °F 29.83 in WSW 1.0 mph 2.3 mph 52 % 0.00 in
18:20 71.0 °F 52.5 °F 29.84 in WSW 3.0 mph 4.0 mph 52 % 0.00 in
18:25 71.2 °F 51.6 °F 29.84 in WSW 2.1 mph 4.6 mph 50 % 0.00 in
18:30 71.3 °F 51.7 °F 29.84 in SW 1.3 mph 4.6 mph 50 % 0.00 in
18:35 71.4 °F 51.8 °F 29.84 in WNW 1.4 mph 5.8 mph 50 % 0.00 in
18:40 71.4 °F 52.9 °F 29.84 in North 1.4 mph 5.0 mph 52 % 0.00 in
18:45 71.4 °F 52.9 °F 29.85 in NW 1.6 mph 3.5 mph 52 % 0.00 in
18:50 71.3 °F 51.7 °F 29.85 in NNW 2.1 mph 5.8 mph 50 % 0.00 in
18:55 71.3 °F 52.2 °F 29.85 in WNW 2.4 mph 5.8 mph 51 % 0.00 in
19:00 71.1 °F 53.1 °F 29.85 in WNW 1.1 mph 5.0 mph 53 % 0.00 in
19:05 70.8 °F 52.8 °F 29.85 in NW 1.7 mph 4.6 mph 53 % 0.00 in
19:10 70.5 °F 52.0 °F 29.85 in NNE 3.5 mph 10.4 mph 52 % 0.00 in
19:15 70.2 °F 51.7 °F 29.85 in WNW 2.1 mph 5.8 mph 52 % 0.00 in
19:20 69.8 °F 51.9 °F 29.85 in NNE 0.8 mph 3.0 mph 53 % 0.00 in
19:25 69.5 °F 52.1 °F 29.86 in NW 2.0 mph 5.8 mph 54 % 0.00 in
19:30 69.3 °F 51.9 °F 29.86 in NNW 0.8 mph 3.5 mph 54 % 0.00 in
19:35 69.0 °F 51.7 °F 29.86 in North 3.2 mph 8.1 mph 54 % 0.00 in
19:40 68.6 °F 51.3 °F 29.86 in NW 1.6 mph 3.5 mph 54 % 0.00 in
19:45 68.3 °F 51.0 °F 29.86 in North 1.6 mph 4.0 mph 54 % 0.00 in
19:50 68.1 °F 50.8 °F 29.87 in NW 2.3 mph 2.3 mph 54 % 0.00 in
19:56 67.7 °F 49.4 °F 29.87 in North 2.5 mph 5.8 mph 52 % 0.00 in
20:01 67.5 °F 50.8 °F 29.88 in North 0.2 mph 1.2 mph 55 % 0.00 in
20:06 67.2 °F 50.5 °F 29.88 in NNW 1.0 mph 5.0 mph 55 % 0.00 in
20:11 66.8 °F 50.6 °F 29.88 in NW 3.0 mph 6.9 mph 56 % 0.00 in
20:16 66.5 °F 49.8 °F 29.88 in NW 1.0 mph 7.0 mph 55 % 0.00 in
20:21 66.3 °F 48.7 °F 29.88 in NNW 1.0 mph 7.0 mph 53 % 0.00 in
20:26 66.1 °F 49.0 °F 29.88 in NW 2.0 mph 6.0 mph 54 % 0.00 in
20:31 65.9 °F 49.3 °F 29.89 in NW 1.0 mph 6.0 mph 55 % 0.00 in
20:36 65.7 °F 49.1 °F 29.89 in North 3.6 mph 4.0 mph 55 % 0.00 in
20:41 65.5 °F 49.4 °F 29.89 in Calm   5.0 mph 56 % 0.00 in
20:46 65.2 °F 49.1 °F 29.89 in NW 3.0 mph 10.0 mph 56 % 0.00 in
20:51 65.0 °F 48.4 °F 29.89 in NNW 1.0 mph 8.0 mph 55 % 0.00 in
20:56 64.8 °F 48.3 °F 29.89 in NNW 1.0 mph 5.0 mph 55 % 0.00 in
21:01 64.7 °F 48.2 °F 29.90 in West 1.1 mph 3.5 mph 55 % 0.00 in
21:06 64.6 °F 48.5 °F 29.90 in NE 1.0 mph 4.0 mph 56 % 0.00 in
21:11 64.5 °F 48.0 °F 29.90 in NW 0.6 mph 4.0 mph 55 % 0.00 in
21:16 64.4 °F 47.9 °F 29.90 in Calm   1.2 mph 55 % 0.00 in
21:21 64.3 °F 48.3 °F 29.90 in NW 0.8 mph 2.3 mph 56 % 0.00 in
21:26 64.2 °F 48.6 °F 29.91 in NNW 0.3 mph 1.2 mph 57 % 0.00 in
21:31 64.0 °F 48.5 °F 29.91 in NNW 0.2 mph 1.2 mph 57 % 0.00 in
21:36 63.9 °F 48.8 °F 29.91 in Calm     58 % 0.00 in
21:41 63.8 °F 49.2 °F 29.91 in Calm     59 % 0.00 in
21:46 63.6 °F 49.5 °F 29.92 in NNW 0.1 mph 1.0 mph 60 % 0.00 in
21:51 63.4 °F 49.7 °F 29.92 in Calm     61 % 0.00 in
21:56 63.2 °F 50.0 °F 29.92 in NNW 0.1 mph 1.2 mph 62 % 0.00 in
22:01 63.0 °F 49.8 °F 29.92 in Calm   1.2 mph 62 % 0.00 in
22:06 62.7 °F 49.9 °F 29.92 in Calm     63 % 0.00 in
22:11 62.5 °F 50.2 °F 29.92 in North 0.6 mph 2.0 mph 64 % 0.00 in
22:16 62.2 °F 49.9 °F 29.92 in North 0.5 mph 2.3 mph 64 % 0.00 in
22:21 62.0 °F 50.1 °F 29.92 in Calm   1.2 mph 65 % 0.00 in
22:26 61.8 °F 49.1 °F 29.92 in Calm   2.3 mph 63 % 0.00 in
22:31 61.7 °F 49.0 °F 29.93 in Calm     63 % 0.00 in
22:36 61.5 °F 48.8 °F 29.93 in Calm     63 % 0.00 in
22:41 61.4 °F 48.7 °F 29.93 in Calm   1.2 mph 63 % 0.00 in
22:46 61.3 °F 49.0 °F 29.93 in NNW 0.4 mph 1.2 mph 64 % 0.00 in
22:51 61.2 °F 48.9 °F 29.93 in Calm   3.0 mph 64 % 0.00 in
22:56 61.1 °F 49.2 °F 29.93 in WNW 1.0 mph 3.0 mph 65 % 0.00 in
23:01 60.9 °F 49.1 °F 29.93 in West 1.7 mph 3.5 mph 65 % 0.00 in
23:06 60.9 °F 49.0 °F 29.93 in Calm   4.0 mph 65 % 0.00 in
23:11 60.8 °F 49.3 °F 29.93 in WNW 2.0 mph 6.0 mph 66 % 0.00 in
23:16 60.6 °F 48.8 °F 29.93 in WNW 1.0 mph 3.0 mph 65 % 0.00 in
23:21 60.5 °F 48.3 °F 29.93 in WNW 1.0 mph 5.0 mph 64 % 0.00 in
23:26 60.5 °F 47.8 °F 29.93 in WNW 1.0 mph 4.0 mph 63 % 0.00 in
23:31 60.4 °F 48.6 °F 29.93 in Calm   7.0 mph 65 % 0.00 in
23:36 60.4 °F 49.0 °F 29.93 in WNW 2.0 mph 5.0 mph 66 % 0.00 in
23:41 60.4 °F 49.4 °F 29.94 in WNW 1.0 mph 4.0 mph 67 % 0.00 in
23:46 60.4 °F 49.4 °F 29.93 in Calm   3.0 mph 67 % 0.00 in
23:51 60.3 °F 49.7 °F 29.93 in Calm   2.0 mph 68 % 0.00 in
23:56 60.2 °F 48.8 °F 29.93 in NNW 2.0 mph 5.0 mph 66 % 0.00 in
Crab Meadow Weather
Compliments of Weather Underground - 3 mb

Script developed by  Jim McMurry - jmcmurry@mwt.net Adapted for the template by  Wim van der Kuil - Leuven-Template.eu

Weather Terms: Heavy Sleet Warning - Accumulations of 1/2 inch or more of sleet.